createdAt,value
2023-01-09T00:00:38.038Z,97871.88
2023-01-09T00:03:05.612Z,97875.09
2023-01-09T00:05:33.232Z,97880.00
2023-01-09T00:08:00.843Z,97883.84
2023-01-09T00:10:28.553Z,97878.97
2023-01-09T00:12:57.550Z,97885.28
2023-01-09T00:15:25.146Z,97880.00
2023-01-09T00:17:52.735Z,97881.81
2023-01-09T00:20:20.421Z,97872.47
2023-01-09T00:22:47.984Z,97875.94
2023-01-09T00:25:15.701Z,97867.81
2023-01-09T00:27:43.267Z,97872.69
2023-01-09T00:30:13.314Z,97872.09
2023-01-09T00:32:41.502Z,97872.69
2023-01-09T00:35:12.836Z,97870.25
2023-01-09T00:37:40.481Z,97864.16
2023-01-09T00:40:08.723Z,97863.97
2023-01-09T00:42:36.766Z,97867.19
2023-01-09T00:45:08.938Z,97872.66
2023-01-09T00:47:42.769Z,97875.91
2023-01-09T00:50:14.808Z,97870.00
2023-01-09T00:52:43.471Z,97866.16
2023-01-09T00:55:11.550Z,97869.19
2023-01-09T00:57:39.299Z,97874.25
2023-01-09T01:00:09.337Z,97872.63
2023-01-09T01:02:38.392Z,97871.78
2023-01-09T01:05:24.482Z,97872.63
2023-01-09T01:07:52.115Z,97871.41
2023-01-09T01:10:21.436Z,97875.44
2023-01-09T01:12:49.839Z,97871.41
2023-01-09T01:15:19.710Z,97873.81
2023-01-09T01:17:49.125Z,97867.13
2023-01-09T01:20:19.861Z,97882.75
2023-01-09T01:22:47.943Z,97870.75
2023-01-09T01:25:17.429Z,97883.97
2023-01-09T01:27:45.587Z,97888.88
2023-01-09T01:30:15.957Z,97881.13
2023-01-09T01:32:44.223Z,97874.84
2023-01-09T01:35:13.232Z,97890.06
2023-01-09T01:37:41.087Z,97892.09
2023-01-09T01:40:11.798Z,97898.81
2023-01-09T01:42:46.590Z,97892.69
2023-01-09T01:45:16.635Z,97900.81
2023-01-09T01:47:51.232Z,97902.66
2023-01-09T01:50:28.612Z,97893.72
2023-01-09T01:53:06.566Z,97911.59
2023-01-09T01:55:36.078Z,97910.81
2023-01-09T01:58:08.021Z,97915.28
2023-01-09T02:00:39.827Z,97908.75
2023-01-09T02:03:08.511Z,97915.47
2023-01-09T02:05:39.863Z,97921.16
2023-01-09T02:08:08.378Z,97912.22
2023-01-09T02:10:35.947Z,97918.72
2023-01-09T02:13:04.449Z,97890.53
2023-01-09T02:15:37.874Z,97900.28
2023-01-09T02:18:28.303Z,97911.63
2023-01-09T02:21:05.253Z,97916.03
2023-01-09T02:24:03.425Z,97921.72
2023-01-09T02:27:04.862Z,97906.28
2023-01-09T02:30:10.991Z,97923.38
2023-01-09T02:32:49.807Z,97928.47
2023-01-09T02:35:36.714Z,97923.22
2023-01-09T02:38:15.046Z,97924.22
2023-01-09T02:40:47.948Z,97927.47
2023-01-09T02:43:16.213Z,97930.09
2023-01-09T02:45:43.839Z,97927.47
2023-01-09T02:48:13.224Z,97929.47
2023-01-09T02:50:44.572Z,97937.56
2023-01-09T02:53:53.959Z,97945.84
2023-01-09T02:56:36.596Z,97952.56
2023-01-09T02:59:25.719Z,97955.59
2023-01-09T03:02:15.216Z,97958.63
2023-01-09T03:04:54.630Z,97966.75
2023-01-09T03:07:26.512Z,97959.84
2023-01-09T03:10:01.207Z,97967.59
2023-01-09T03:12:33.019Z,97977.13
2023-01-09T03:15:03.646Z,97967.97
2023-01-09T03:17:38.087Z,97977.13
2023-01-09T03:20:11.230Z,97967.97
2023-01-09T03:22:40.872Z,97969.22
2023-01-09T03:25:09.196Z,97970.22
2023-01-09T03:27:36.891Z,97973.03
2023-01-09T03:30:05.102Z,97972.44
2023-01-09T03:32:32.685Z,97984.59
2023-01-09T03:35:01.879Z,97967.16
2023-01-09T03:37:30.781Z,97977.06
2023-01-09T03:39:58.361Z,97963.69
2023-01-09T03:42:25.951Z,97977.88
2023-01-09T03:44:53.626Z,97970.59
2023-01-09T03:47:21.246Z,97978.06
2023-01-09T03:49:48.865Z,97989.38
2023-01-09T03:52:16.524Z,97989.38
2023-01-09T03:54:45.464Z,98009.47
2023-01-09T03:57:13.073Z,98016.16
2023-01-09T03:59:40.819Z,98017.75
2023-01-09T04:02:08.628Z,98033.53
2023-01-09T04:04:36.324Z,98047.72
2023-01-09T04:07:03.860Z,98056.63
2023-01-09T04:09:31.593Z,98048.50
2023-01-09T04:12:00.561Z,98071.25
2023-01-09T04:14:28.162Z,98077.66
2023-01-09T04:16:55.760Z,98084.16
2023-01-09T04:19:23.317Z,98090.25
2023-01-09T04:21:50.874Z,98096.50
2023-01-09T04:24:18.510Z,98105.22
2023-01-09T04:26:46.124Z,98125.13
2023-01-09T04:29:15.044Z,98122.53
2023-01-09T04:31:42.678Z,98138.34
2023-01-09T04:34:10.294Z,98148.66
2023-01-09T04:36:38.749Z,98153.25
2023-01-09T04:39:06.759Z,98148.97
2023-01-09T04:41:52.471Z,98158.28
2023-01-09T04:44:26.116Z,98166.03
2023-01-09T04:46:54.978Z,98162.31
2023-01-09T04:49:22.887Z,98167.66
2023-01-09T04:51:50.962Z,98162.09
2023-01-09T04:54:18.738Z,98158.13
2023-01-09T04:56:46.433Z,98167.66
2023-01-09T04:59:14.139Z,98180.34
2023-01-09T05:01:43.136Z,98184.97
2023-01-09T05:04:11.143Z,98187.91
2023-01-09T05:06:38.817Z,98187.50
2023-01-09T05:09:06.651Z,98196.56
2023-01-09T05:11:34.299Z,98192.22
2023-01-09T05:14:01.840Z,98208.38
2023-01-09T05:16:30.813Z,98202.88
2023-01-09T05:19:00.568Z,98208.97
2023-01-09T05:21:28.850Z,98203.28
2023-01-09T05:23:56.506Z,98207.84
2023-01-09T05:26:24.917Z,98209.41
2023-01-09T05:28:52.524Z,98213.63
2023-01-09T05:31:22.277Z,98228.59
2023-01-09T05:33:50.142Z,98231.66
2023-01-09T05:36:19.003Z,98249.81
2023-01-09T05:38:46.675Z,98248.31
2023-01-09T05:41:14.217Z,98280.97
2023-01-09T05:43:41.946Z,98275.34
2023-01-09T05:46:09.769Z,98273.97
2023-01-09T05:48:37.965Z,98271.63
2023-01-09T05:51:05.715Z,98265.63
2023-01-09T05:53:34.655Z,98272.34
2023-01-09T05:56:02.218Z,98279.59
2023-01-09T05:58:29.882Z,98267.50
2023-01-09T06:00:57.525Z,98270.88
2023-01-09T06:03:25.090Z,98277.38
2023-01-09T06:05:52.751Z,98275.66
2023-01-09T06:08:20.331Z,98271.47
2023-01-09T06:10:49.217Z,98276.06
2023-01-09T06:13:16.814Z,98279.09
2023-01-09T06:15:44.422Z,98289.69
2023-01-09T06:18:12.049Z,98303.22
2023-01-09T06:20:39.673Z,98301.97
2023-01-09T06:23:07.271Z,98302.47
2023-01-09T06:25:35.079Z,98303.94
2023-01-09T06:28:04.448Z,98299.66
2023-01-09T06:30:32.024Z,98310.38
2023-01-09T06:32:59.648Z,98306.31
2023-01-09T06:35:27.335Z,98317.91
2023-01-09T06:37:54.915Z,98316.34
2023-01-09T06:40:22.476Z,98315.53
2023-01-09T06:42:50.559Z,98319.09
2023-01-09T06:45:19.620Z,98327.16
2023-01-09T06:47:47.241Z,98321.97
2023-01-09T06:50:14.903Z,98319.16
2023-01-09T06:52:42.500Z,98333.88
2023-01-09T06:55:10.581Z,98336.03
2023-01-09T06:57:38.123Z,98337.41
2023-01-09T07:00:06.662Z,98327.25
2023-01-09T07:02:35.738Z,98336.28
2023-01-09T07:05:07.506Z,98339.50
2023-01-09T07:07:35.547Z,98345.00
2023-01-09T07:10:03.260Z,98343.28
2023-01-09T07:12:30.851Z,98348.56
2023-01-09T07:14:59.029Z,98347.53
2023-01-09T07:17:26.624Z,98343.19
2023-01-09T07:19:55.669Z,98342.19
2023-01-09T07:22:23.441Z,98345.66
2023-01-09T07:24:51.028Z,98358.25
2023-01-09T07:27:18.621Z,98360.16
2023-01-09T07:29:46.184Z,98354.91
2023-01-09T07:32:13.806Z,98360.91
2023-01-09T07:34:41.456Z,98361.16
2023-01-09T07:37:10.353Z,98370.69
2023-01-09T07:39:37.900Z,98358.97
2023-01-09T07:42:05.514Z,98361.13
2023-01-09T07:44:34.377Z,98363.75
2023-01-09T07:47:02.021Z,98360.03
2023-01-09T07:49:29.634Z,98362.75
2023-01-09T07:51:57.243Z,98361.94
2023-01-09T07:54:26.217Z,98376.66
2023-01-09T07:56:53.971Z,98369.84
2023-01-09T07:59:21.784Z,98377.75
2023-01-09T08:01:49.477Z,98381.28
2023-01-09T08:04:17.256Z,98377.25
2023-01-09T08:06:44.859Z,98383.72
2023-01-09T08:09:13.820Z,98394.88
2023-01-09T08:11:42.816Z,98381.84
2023-01-09T08:14:10.531Z,98389.69
2023-01-09T08:16:38.119Z,98380.09
2023-01-09T08:19:06.445Z,98381.19
2023-01-09T08:21:34.223Z,98382.66
2023-01-09T08:24:01.871Z,98381.28
2023-01-09T08:26:29.440Z,98382.09
2023-01-09T08:28:58.402Z,98385.06
2023-01-09T08:31:26.045Z,98385.97
2023-01-09T08:33:53.784Z,98393.53
2023-01-09T08:36:21.399Z,98389.44
2023-01-09T08:38:48.984Z,98383.28
2023-01-09T08:41:39.530Z,98380.94
2023-01-09T08:44:26.357Z,98394.53
2023-01-09T08:47:09.322Z,98397.84
2023-01-09T08:49:38.578Z,98405.56
2023-01-09T08:52:07.464Z,98399.41
2023-01-09T08:54:36.825Z,98410.66
2023-01-09T08:57:05.001Z,98410.66
2023-01-09T08:59:34.328Z,98409.25
2023-01-09T09:02:02.022Z,98406.13
2023-01-09T09:04:29.747Z,98407.69
2023-01-09T09:06:57.308Z,98415.94
2023-01-09T09:09:25.680Z,98402.25
2023-01-09T09:11:53.334Z,98409.75
2023-01-09T09:14:38.399Z,98413.78
2023-01-09T09:17:07.382Z,98419.03
2023-01-09T09:19:35.146Z,98419.31
2023-01-09T09:22:02.799Z,98421.22
2023-01-09T09:24:30.410Z,98417.88
2023-01-09T09:26:58.268Z,98416.75
2023-01-09T09:29:25.930Z,98415.22
2023-01-09T09:31:53.616Z,98405.06
2023-01-09T09:34:23.291Z,98429.28
2023-01-09T09:36:50.893Z,98417.38
2023-01-09T09:39:18.683Z,98425.09
2023-01-09T09:42:25.557Z,98416.47
2023-01-09T09:45:11.325Z,98416.66
2023-01-09T09:47:48.265Z,98427.19
2023-01-09T09:50:45.750Z,98425.06
2023-01-09T09:53:19.832Z,98419.72
2023-01-09T09:55:50.780Z,98410.34
2023-01-09T09:58:26.031Z,98404.00
2023-01-09T10:00:54.524Z,98410.72
2023-01-09T10:03:33.998Z,98403.25
2023-01-09T10:06:08.578Z,98423.25
2023-01-09T10:08:46.373Z,98412.66
2023-01-09T10:11:18.853Z,98409.53
2023-01-09T10:14:05.947Z,98406.25
2023-01-09T10:16:56.183Z,98409.53
2023-01-09T10:19:38.554Z,98419.59
2023-01-09T10:22:18.467Z,98416.88
2023-01-09T10:24:59.979Z,98428.56
2023-01-09T10:27:40.871Z,98418.97
2023-01-09T10:30:27.847Z,98423.63
2023-01-09T10:33:07.703Z,98415.63
2023-01-09T10:35:51.795Z,98419.34
2023-01-09T10:38:26.372Z,98416.19
2023-01-09T10:41:01.697Z,98418.72
2023-01-09T10:43:35.582Z,98410.91
2023-01-09T10:46:07.018Z,98416.00
2023-01-09T10:48:36.730Z,98411.72
2023-01-09T10:51:14.096Z,98411.63
2023-01-09T10:53:46.479Z,98416.94
2023-01-09T10:56:20.892Z,98425.53
2023-01-09T10:58:49.404Z,98431.22
2023-01-09T11:01:20.782Z,98418.47
2023-01-09T11:03:48.393Z,98421.69
2023-01-09T11:06:22.755Z,98413.59
2023-01-09T11:08:56.452Z,98415.13
2023-01-09T11:11:35.037Z,98420.31
2023-01-09T11:14:08.251Z,98414.72
2023-01-09T11:16:35.919Z,98417.31
2023-01-09T11:19:03.743Z,98412.16
2023-01-09T11:21:35.856Z,98420.38
2023-01-09T11:24:29.492Z,98415.47
2023-01-09T11:27:23.603Z,98424.38
2023-01-09T11:30:14.119Z,98416.50
2023-01-09T11:32:42.176Z,98421.13
2023-01-09T11:35:18.780Z,98426.31
2023-01-09T11:37:48.339Z,98422.22
2023-01-09T11:40:22.759Z,98415.69
2023-01-09T11:43:06.053Z,98417.50
2023-01-09T11:45:36.798Z,98407.94
2023-01-09T11:48:18.511Z,98413.28
2023-01-09T11:50:56.005Z,98406.88
2023-01-09T11:53:24.532Z,98414.03
2023-01-09T11:56:00.929Z,98404.22
2023-01-09T11:58:33.276Z,98407.47
2023-01-09T12:01:13.420Z,98413.56
2023-01-09T12:04:00.370Z,98401.28
2023-01-09T12:06:35.299Z,98404.59
2023-01-09T12:09:07.528Z,98410.84
2023-01-09T12:11:44.827Z,98405.19
2023-01-09T12:14:33.203Z,98406.09
2023-01-09T12:17:36.221Z,98406.44
2023-01-09T12:20:22.155Z,98412.38
2023-01-09T12:22:57.851Z,98419.59
2023-01-09T12:25:39.603Z,98419.53
2023-01-09T12:28:26.836Z,98436.28
2023-01-09T12:31:04.210Z,98434.16
2023-01-09T12:33:41.591Z,98432.56
2023-01-09T12:36:23.235Z,98432.41
2023-01-09T12:38:56.054Z,98427.72
2023-01-09T12:41:54.598Z,98424.00
2023-01-09T12:44:41.018Z,98428.84
2023-01-09T12:47:25.979Z,98426.31
2023-01-09T12:50:03.010Z,98426.56
2023-01-09T12:52:36.007Z,98426.56
2023-01-09T12:55:14.052Z,98410.94
2023-01-09T12:57:44.989Z,98424.03
2023-01-09T13:00:19.706Z,98423.66
2023-01-09T13:03:03.673Z,98436.56
2023-01-09T13:05:38.237Z,98422.34
2023-01-09T13:08:09.411Z,98416.97
2023-01-09T13:10:42.110Z,98433.22
2023-01-09T13:13:17.896Z,98431.81
2023-01-09T13:15:51.940Z,98434.56
2023-01-09T13:18:23.939Z,98416.50
2023-01-09T13:20:53.859Z,98429.59
2023-01-09T13:23:29.276Z,98430.13
2023-01-09T13:26:00.927Z,98429.34
2023-01-09T13:28:33.391Z,98431.97
2023-01-09T13:31:27.776Z,98445.75
2023-01-09T13:33:58.958Z,98436.59
2023-01-09T13:36:29.375Z,98444.06
2023-01-09T13:38:58.910Z,98450.00
2023-01-09T13:41:45.879Z,98457.69
2023-01-09T13:44:28.418Z,98460.84
2023-01-09T13:46:59.371Z,98461.97
2023-01-09T13:49:31.872Z,98463.75
2023-01-09T13:52:02.639Z,98475.09
2023-01-09T13:55:07.696Z,98472.25
2023-01-09T13:57:36.560Z,98466.91
2023-01-09T14:00:44.590Z,98477.00
2023-01-09T14:03:22.572Z,98479.22
2023-01-09T14:06:12.933Z,98487.84
2023-01-09T14:08:42.732Z,98496.03
2023-01-09T14:11:18.450Z,98499.88
2023-01-09T14:13:47.933Z,98490.09
2023-01-09T14:16:23.619Z,98496.53
2023-01-09T14:18:54.983Z,98507.41
2023-01-09T14:21:22.620Z,98496.41
2023-01-09T14:23:59.226Z,98510.97
2023-01-09T14:26:44.474Z,98518.81
2023-01-09T14:29:44.651Z,98529.63
2023-01-09T14:32:43.831Z,98527.72
2023-01-09T14:35:26.859Z,98533.41
2023-01-09T14:38:05.785Z,98528.94
2023-01-09T14:40:35.358Z,98529.41
2023-01-09T14:43:17.915Z,98543.50
2023-01-09T14:45:50.002Z,98542.44
2023-01-09T14:48:18.107Z,98547.91
2023-01-09T14:50:55.070Z,98542.63
2023-01-09T14:53:25.489Z,98556.94
2023-01-09T14:55:57.970Z,98559.56
2023-01-09T14:58:28.272Z,98564.69
2023-01-09T15:01:01.386Z,98572.47
2023-01-09T15:03:32.922Z,98580.47
2023-01-09T15:06:02.408Z,98587.59
2023-01-09T15:08:30.708Z,98591.84
2023-01-09T15:11:00.197Z,98594.94
2023-01-09T15:13:32.950Z,98603.03
2023-01-09T15:16:01.744Z,98602.03
2023-01-09T15:18:32.872Z,98611.22
2023-01-09T15:21:03.835Z,98610.47
2023-01-09T15:23:32.346Z,98623.63
2023-01-09T15:26:14.256Z,98634.25
2023-01-09T15:28:43.953Z,98642.78
2023-01-09T15:31:16.267Z,98637.84
2023-01-09T15:33:45.933Z,98642.59
2023-01-09T15:36:19.059Z,98638.13
2023-01-09T15:38:47.666Z,98639.38
2023-01-09T15:41:35.086Z,98638.19
2023-01-09T15:44:04.839Z,98642.84
2023-01-09T15:46:32.904Z,98642.34
2023-01-09T15:49:01.455Z,98648.28
2023-01-09T15:51:33.283Z,98639.44
2023-01-09T15:54:01.153Z,98640.50
2023-01-09T15:56:30.717Z,98650.22
2023-01-09T15:58:59.678Z,98656.31
2023-01-09T16:01:30.853Z,98658.63
2023-01-09T16:04:07.543Z,98653.84
2023-01-09T16:06:39.331Z,98665.19
2023-01-09T16:09:17.149Z,98668.25
2023-01-09T16:11:48.248Z,98672.56
2023-01-09T16:14:21.075Z,98674.28
2023-01-09T16:16:51.683Z,98686.34
2023-01-09T16:19:33.961Z,98687.66
2023-01-09T16:22:04.930Z,98697.81
2023-01-09T16:24:40.849Z,98702.16
2023-01-09T16:27:23.810Z,98711.25
2023-01-09T16:29:57.615Z,98709.53
2023-01-09T16:32:28.246Z,98707.19
2023-01-09T16:34:57.324Z,98716.41
2023-01-09T16:37:27.150Z,98717.91
2023-01-09T16:40:36.564Z,98723.03
2023-01-09T16:43:08.458Z,98725.53
2023-01-09T16:45:38.272Z,98722.88
2023-01-09T16:48:13.611Z,98740.03
2023-01-09T16:50:41.721Z,98738.72
2023-01-09T16:53:15.905Z,98754.16
2023-01-09T16:55:43.645Z,98754.88
2023-01-09T16:58:16.408Z,98765.06
2023-01-09T17:00:45.408Z,98771.38
2023-01-09T17:03:13.451Z,98773.69
2023-01-09T17:05:41.067Z,98777.66
2023-01-09T17:08:20.773Z,98785.53
2023-01-09T17:10:48.414Z,98774.19
2023-01-09T17:13:16.037Z,98795.06
2023-01-09T17:15:44.318Z,98797.72
2023-01-09T17:18:16.120Z,98797.88
2023-01-09T17:20:45.782Z,98803.63
2023-01-09T17:23:13.641Z,98772.13
2023-01-09T17:26:01.803Z,98791.16
2023-01-09T17:28:33.772Z,98786.06
2023-01-09T17:31:02.060Z,98797.41
2023-01-09T17:33:29.645Z,98790.19
2023-01-09T17:35:57.729Z,98802.03
2023-01-09T17:38:25.531Z,98801.06
2023-01-09T17:40:55.660Z,98808.28
2023-01-09T17:43:23.386Z,98818.78
2023-01-09T17:45:51.492Z,98810.59
2023-01-09T17:48:21.483Z,98826.00
2023-01-09T17:50:50.057Z,98824.88
2023-01-09T17:53:20.512Z,98824.88
2023-01-09T17:55:48.175Z,98833.72
2023-01-09T17:58:28.983Z,98843.78
2023-01-09T18:00:57.226Z,98852.75
2023-01-09T18:03:30.873Z,98861.81
2023-01-09T18:05:58.641Z,98845.69
2023-01-09T18:08:26.266Z,98874.97
2023-01-09T18:10:53.900Z,98877.44
2023-01-09T18:13:21.581Z,98889.41
2023-01-09T18:15:50.572Z,98893.53
2023-01-09T18:18:19.956Z,98898.13
2023-01-09T18:20:47.663Z,98906.34
2023-01-09T18:23:16.355Z,98916.03
2023-01-09T18:25:44.519Z,98923.25
2023-01-09T18:28:15.061Z,98924.56
2023-01-09T18:30:45.000Z,98922.28
2023-01-09T18:33:14.478Z,98941.19
2023-01-09T18:35:42.593Z,98947.25
2023-01-09T18:38:10.667Z,98940.69
2023-01-09T18:40:38.519Z,98958.41
2023-01-09T18:43:07.767Z,98950.69
2023-01-09T18:45:35.780Z,98963.03
2023-01-09T18:48:03.450Z,98955.47
2023-01-09T18:50:32.342Z,98956.78
2023-01-09T18:53:00.414Z,98963.34
2023-01-09T18:55:28.172Z,98966.63
2023-01-09T18:57:56.779Z,98973.19
2023-01-09T19:00:25.161Z,98972.88
2023-01-09T19:02:52.999Z,98985.69
2023-01-09T19:05:20.698Z,98986.00
2023-01-09T19:07:49.933Z,99000.13
2023-01-09T19:10:18.376Z,98998.19
2023-01-09T19:12:46.101Z,99007.53
2023-01-09T19:15:13.854Z,99010.00
2023-01-09T19:17:41.895Z,99000.84
2023-01-09T19:20:10.841Z,99007.72
2023-01-09T19:22:38.544Z,99005.44
2023-01-09T19:25:08.522Z,99023.00
2023-01-09T19:27:36.220Z,99025.81
2023-01-09T19:30:03.937Z,99024.81
2023-01-09T19:32:31.983Z,99030.06
2023-01-09T19:34:59.928Z,99033.72
2023-01-09T19:37:27.901Z,99030.75
2023-01-09T19:39:55.503Z,99036.19
2023-01-09T19:42:24.512Z,99037.50
2023-01-09T19:44:52.190Z,99043.41
2023-01-09T19:47:19.878Z,99048.66
2023-01-09T19:49:47.614Z,99055.59
2023-01-09T19:52:15.581Z,99057.56
2023-01-09T19:54:43.347Z,99059.06
2023-01-09T19:57:11.153Z,99056.44
2023-01-09T19:59:40.642Z,99070.09
2023-01-09T20:02:10.625Z,99066.31
2023-01-09T20:04:38.641Z,99078.78
2023-01-09T20:07:06.441Z,99084.53
2023-01-09T20:09:34.120Z,99079.75
2023-01-09T20:12:03.949Z,99077.78
2023-01-09T20:14:31.579Z,99092.44
2023-01-09T20:17:04.190Z,99102.97
2023-01-09T20:19:32.658Z,99106.75
2023-01-09T20:22:01.203Z,99105.09
2023-01-09T20:24:29.000Z,99112.66
2023-01-09T20:26:56.661Z,99104.63
2023-01-09T20:29:24.908Z,99115.28
2023-01-09T20:31:52.539Z,99116.94
2023-01-09T20:34:21.541Z,99117.94
2023-01-09T20:36:49.456Z,99123.50
2023-01-09T20:39:17.124Z,99124.16
2023-01-09T20:41:44.727Z,99129.31
2023-01-09T20:44:14.509Z,99132.06
2023-01-09T20:46:44.708Z,99130.44
2023-01-09T20:49:13.986Z,99129.75
2023-01-09T20:51:46.019Z,99126.34
2023-01-09T20:54:14.044Z,99134.19
2023-01-09T20:56:41.808Z,99146.25
2023-01-09T20:59:13.014Z,99135.53
2023-01-09T21:01:41.486Z,99145.38
2023-01-09T21:04:09.646Z,99149.16
2023-01-09T21:06:37.325Z,99146.84
2023-01-09T21:09:06.736Z,99156.41
2023-01-09T21:11:34.554Z,99144.56
2023-01-09T21:14:02.514Z,99152.94
2023-01-09T21:16:30.230Z,99147.03
2023-01-09T21:18:57.820Z,99159.50
2023-01-09T21:22:17.135Z,99169.34
2023-01-09T21:24:49.647Z,99176.13
2023-01-09T21:27:17.850Z,99177.59
2023-01-09T21:29:46.609Z,99181.53
2023-01-09T21:32:14.373Z,99186.31
2023-01-09T21:34:42.152Z,99198.97
2023-01-09T21:37:09.819Z,99199.00
2023-01-09T21:39:37.520Z,99202.78
2023-01-09T21:42:24.376Z,99200.44
2023-01-09T21:45:24.364Z,99211.59
2023-01-09T21:47:52.081Z,99220.84
2023-01-09T21:50:19.812Z,99222.50
2023-01-09T21:52:47.389Z,99235.66
2023-01-09T21:55:15.162Z,99233.69
2023-01-09T21:57:44.068Z,99240.28
2023-01-09T22:00:12.821Z,99241.06
2023-01-09T22:02:41.064Z,99248.63
2023-01-09T22:05:09.156Z,99256.16
2023-01-09T22:07:37.112Z,99257.63
2023-01-09T22:10:05.486Z,99270.84
2023-01-09T22:12:33.088Z,99274.09
2023-01-09T22:15:02.160Z,99271.47
2023-01-09T22:17:30.525Z,99280.03
2023-01-09T22:19:58.096Z,99283.53
2023-01-09T22:22:25.643Z,99287.25
2023-01-09T22:24:53.717Z,99282.00
2023-01-09T22:27:21.248Z,99286.63
2023-01-09T22:29:49.019Z,99285.25
2023-01-09T22:32:18.363Z,99295.28
2023-01-09T22:34:45.933Z,99292.31
2023-01-09T22:37:13.779Z,99306.69
2023-01-09T22:39:41.421Z,99307.13
2023-01-09T22:42:09.011Z,99312.00
2023-01-09T22:44:36.587Z,99317.34
2023-01-09T22:47:04.378Z,99318.81
2023-01-09T22:49:41.093Z,99322.63
2023-01-09T22:52:19.152Z,99328.03
2023-01-09T22:54:50.580Z,99336.25
2023-01-09T22:57:18.251Z,99337.22
2023-01-09T22:59:45.820Z,99340.00
2023-01-09T23:02:13.510Z,99343.31
2023-01-09T23:04:42.474Z,99347.47
2023-01-09T23:07:10.066Z,99341.25
2023-01-09T23:09:37.727Z,99347.63
2023-01-09T23:12:06.659Z,99359.50
2023-01-09T23:14:36.611Z,99357.13
2023-01-09T23:17:04.423Z,99372.59
2023-01-09T23:19:32.586Z,99361.56
2023-01-09T23:22:02.430Z,99361.84
2023-01-09T23:24:30.445Z,99366.00
2023-01-09T23:26:58.568Z,99367.94
2023-01-09T23:29:26.970Z,99376.66
2023-01-09T23:31:54.774Z,99380.41
2023-01-09T23:34:24.319Z,99376.53
2023-01-09T23:36:53.459Z,99381.41
2023-01-09T23:39:22.433Z,99387.44
2023-01-09T23:42:07.777Z,99392.38
2023-01-09T23:44:36.389Z,99395.56
2023-01-09T23:47:04.228Z,99396.06
2023-01-09T23:49:31.850Z,99388.66
2023-01-09T23:52:01.645Z,99406.13
2023-01-09T23:54:30.672Z,99415.66
2023-01-09T23:56:58.606Z,99424.53
2023-01-09T23:59:26.267Z,99430.09
